createdAt,value
2022-10-18T00:01:19.944Z,14.25
2022-10-18T00:04:15.135Z,14.24
2022-10-18T00:07:15.454Z,14.23
2022-10-18T00:10:01.441Z,14.21
2022-10-18T00:15:25.729Z,14.16
2022-10-18T00:18:14.069Z,14.13
2022-10-18T00:21:10.306Z,14.10
2022-10-18T00:23:55.141Z,14.03
2022-10-18T00:26:37.409Z,13.97
2022-10-18T00:29:22.948Z,13.93
2022-10-18T00:33:47.844Z,13.92
2022-10-18T00:38:17.873Z,13.89
2022-10-18T00:44:08.951Z,13.83
2022-10-18T00:47:14.998Z,13.77
2022-10-18T00:50:37.353Z,13.73
2022-10-18T00:53:26.239Z,13.70
2022-10-18T00:56:14.134Z,13.68
2022-10-18T00:59:13.231Z,13.64
2022-10-18T01:01:58.660Z,13.57
2022-10-18T01:05:09.105Z,13.53
2022-10-18T01:08:16.377Z,13.50
2022-10-18T01:11:33.563Z,13.48
2022-10-18T01:14:45.489Z,13.47
2022-10-18T01:17:50.917Z,13.43
2022-10-18T01:20:47.660Z,13.41
2022-10-18T01:24:21.747Z,13.39
2022-10-18T01:27:14.392Z,13.34
2022-10-18T01:30:34.538Z,13.31
2022-10-18T01:33:43.411Z,13.24
2022-10-18T01:36:57.250Z,13.18
2022-10-18T01:42:49.780Z,13.19
2022-10-18T01:45:32.219Z,13.22
2022-10-18T01:48:19.254Z,13.23
2022-10-18T01:51:58.794Z,13.21
2022-10-18T01:54:44.273Z,13.21
2022-10-18T01:57:41.111Z,13.22
2022-10-18T02:00:52.196Z,13.21
2022-10-18T02:03:41.928Z,13.19
2022-10-18T02:06:39.386Z,13.19
2022-10-18T02:13:43.187Z,13.17
2022-10-18T02:16:32.073Z,13.15
2022-10-18T02:22:43.158Z,13.11
2022-10-18T02:25:39.750Z,13.10
2022-10-18T02:28:33.827Z,13.03
2022-10-18T02:31:48.708Z,13.01
2022-10-18T02:34:32.221Z,12.95
2022-10-18T02:38:01.144Z,12.95
2022-10-18T02:40:40.992Z,12.94
2022-10-18T02:43:42.259Z,12.97
2022-10-18T02:46:39.363Z,12.96
2022-10-18T02:49:14.559Z,12.96
2022-10-18T02:51:47.928Z,12.95
2022-10-18T02:54:28.922Z,12.93
2022-10-18T02:57:07.135Z,12.92
2022-10-18T02:59:56.630Z,12.89
2022-10-18T03:02:43.836Z,12.86
2022-10-18T03:05:17.242Z,12.83
2022-10-18T03:08:15.572Z,12.78
2022-10-18T03:10:51.375Z,12.71
2022-10-18T03:13:38.251Z,12.65
2022-10-18T03:16:39.369Z,12.62
2022-10-18T03:19:41.823Z,12.60
2022-10-18T03:22:35.684Z,12.58
2022-10-18T03:25:24.098Z,12.59
2022-10-18T03:28:55.193Z,12.55
2022-10-18T03:34:27.679Z,12.49
2022-10-18T03:37:12.203Z,12.49
2022-10-18T03:40:01.432Z,12.45
2022-10-18T03:43:05.646Z,12.41
2022-10-18T03:45:42.123Z,12.34
2022-10-18T03:48:43.673Z,12.31
2022-10-18T03:51:28.044Z,12.33
2022-10-18T03:54:12.811Z,12.31
2022-10-18T03:57:00.660Z,12.29
2022-10-18T04:00:07.877Z,12.23
2022-10-18T04:02:53.313Z,12.25
2022-10-18T04:05:37.160Z,12.28
2022-10-18T04:08:08.705Z,12.20
2022-10-18T04:10:53.977Z,12.18
2022-10-18T04:14:16.836Z,12.16
2022-10-18T04:17:00.473Z,12.14
2022-10-18T04:19:32.658Z,12.14
2022-10-18T04:22:14.924Z,12.14
2022-10-18T04:25:10.405Z,12.10
2022-10-18T04:28:09.907Z,12.06
2022-10-18T04:30:55.072Z,12.04
2022-10-18T04:33:24.361Z,12.03
2022-10-18T04:36:26.733Z,12.01
2022-10-18T04:39:40.268Z,11.96
2022-10-18T04:42:19.750Z,11.93
2022-10-18T04:44:53.596Z,11.90
2022-10-18T04:47:27.137Z,11.89
2022-10-18T04:50:15.124Z,11.89
2022-10-18T04:52:52.941Z,11.87
2022-10-18T04:55:40.490Z,11.87
2022-10-18T04:58:15.833Z,11.89
2022-10-18T05:00:53.917Z,11.94
2022-10-18T05:03:56.487Z,11.96
2022-10-18T05:06:45.010Z,11.97
2022-10-18T05:09:40.824Z,11.99
2022-10-18T05:12:15.700Z,12.01
2022-10-18T05:15:12.564Z,12.02
2022-10-18T05:17:51.781Z,12.03
2022-10-18T05:21:13.797Z,12.04
2022-10-18T05:24:04.101Z,12.08
2022-10-18T05:26:44.991Z,12.12
2022-10-18T05:29:50.998Z,12.13
2022-10-18T05:32:31.929Z,12.14
2022-10-18T05:35:09.743Z,12.15
2022-10-18T05:37:59.664Z,12.16
2022-10-18T05:40:53.495Z,12.17
2022-10-18T05:43:30.931Z,12.16
2022-10-18T05:46:23.920Z,12.11
2022-10-18T05:49:25.211Z,12.06
2022-10-18T05:52:04.038Z,12.08
2022-10-18T05:54:57.343Z,12.11
2022-10-18T05:58:09.019Z,12.16
2022-10-18T06:01:18.333Z,12.21
2022-10-18T06:04:06.738Z,12.28
2022-10-18T06:06:52.481Z,12.34
2022-10-18T06:09:28.877Z,12.40
2022-10-18T06:12:18.782Z,12.46
2022-10-18T06:15:02.570Z,12.49
2022-10-18T06:17:54.592Z,12.52
2022-10-18T06:21:05.262Z,12.56
2022-10-18T06:24:11.212Z,12.62
2022-10-18T06:29:42.799Z,12.77
2022-10-18T06:32:24.895Z,12.85
2022-10-18T06:35:11.636Z,12.89
2022-10-18T06:39:42.857Z,12.91
2022-10-18T06:41:17.477Z,12.95
2022-10-18T06:44:09.949Z,12.99
2022-10-18T06:46:49.931Z,13.06
2022-10-18T06:49:20.512Z,13.12
2022-10-18T06:51:59.887Z,13.22
2022-10-18T06:54:34.877Z,13.31
2022-10-18T06:57:06.534Z,13.41
2022-10-18T06:59:38.484Z,13.46
2022-10-18T07:02:07.590Z,13.50
2022-10-18T07:04:36.985Z,13.54
2022-10-18T07:07:07.186Z,13.58
2022-10-18T07:09:52.854Z,13.61
2022-10-18T07:12:45.374Z,13.66
2022-10-18T07:15:37.733Z,13.83
2022-10-18T07:18:26.482Z,14.03
2022-10-18T07:25:35.936Z,14.42
2022-10-18T07:28:36.435Z,14.79
2022-10-18T07:31:31.858Z,15.11
2022-10-18T07:34:30.490Z,15.49
2022-10-18T07:37:56.892Z,15.90
2022-10-18T07:40:31.650Z,16.25
2022-10-18T07:43:48.299Z,16.61
2022-10-18T07:47:08.552Z,17.00
2022-10-18T07:50:22.782Z,17.36
2022-10-18T07:54:02.852Z,17.68
2022-10-18T08:00:25.019Z,18.24
2022-10-18T08:03:09.712Z,18.34
2022-10-18T08:06:24.304Z,18.48
2022-10-18T08:09:25.068Z,18.57
2022-10-18T08:12:22.367Z,18.49
2022-10-18T08:15:15.180Z,18.39
2022-10-18T08:18:48.162Z,18.48
2022-10-18T08:21:32.698Z,18.55
2022-10-18T08:27:45.062Z,18.96
2022-10-18T08:30:42.550Z,19.19
2022-10-18T08:36:58.591Z,19.15
2022-10-18T08:40:20.207Z,19.11
2022-10-18T08:47:40.279Z,19.12
2022-10-18T08:54:13.036Z,19.09
2022-10-18T08:57:22.252Z,19.13
2022-10-18T09:04:00.797Z,19.38
2022-10-18T09:07:59.634Z,19.48
2022-10-18T09:11:41.046Z,19.62
2022-10-18T09:15:09.795Z,19.68
2022-10-18T09:21:32.290Z,19.58
2022-10-18T09:24:23.731Z,19.54
2022-10-18T09:27:17.604Z,19.53
2022-10-18T09:30:20.672Z,19.53
2022-10-18T09:33:21.029Z,19.59
2022-10-18T09:36:01.449Z,19.63
2022-10-18T09:38:50.940Z,19.73
2022-10-18T09:41:53.616Z,19.84
2022-10-18T09:44:33.963Z,19.93
2022-10-18T09:50:17.397Z,20.04
2022-10-18T09:53:26.717Z,20.06
2022-10-18T09:56:45.226Z,20.07
2022-10-18T09:59:52.993Z,20.12
2022-10-18T10:02:27.505Z,20.22
2022-10-18T10:05:26.139Z,20.34
2022-10-18T10:08:20.668Z,20.40
2022-10-18T10:11:36.913Z,20.45
2022-10-18T10:14:30.588Z,20.53
2022-10-18T10:17:08.665Z,20.63
2022-10-18T10:20:04.931Z,20.69
2022-10-18T10:22:48.876Z,20.78
2022-10-18T10:25:41.329Z,20.80
2022-10-18T10:28:18.970Z,20.76
2022-10-18T10:31:41.542Z,20.74
2022-10-18T10:34:25.391Z,20.77
2022-10-18T10:37:43.196Z,20.80
2022-10-18T10:40:41.013Z,20.83
2022-10-18T10:43:33.134Z,20.79
2022-10-18T10:46:28.718Z,20.74
2022-10-18T10:49:34.938Z,20.74
2022-10-18T10:52:25.893Z,20.81
2022-10-18T10:55:23.629Z,20.75
2022-10-18T10:58:04.349Z,20.74
2022-10-18T11:00:45.694Z,20.78
2022-10-18T11:03:29.596Z,20.82
2022-10-18T11:06:02.439Z,20.86
2022-10-18T11:08:43.477Z,20.87
2022-10-18T11:11:33.541Z,20.86
2022-10-18T11:14:27.433Z,20.80
2022-10-18T11:17:33.342Z,20.70
2022-10-18T11:20:07.478Z,20.59
2022-10-18T11:23:05.478Z,20.51
2022-10-18T11:26:13.108Z,20.46
2022-10-18T11:29:07.655Z,20.41
2022-10-18T11:32:24.906Z,20.40
2022-10-18T11:35:39.551Z,20.37
2022-10-18T11:38:49.709Z,20.40
2022-10-18T11:41:30.378Z,20.53
2022-10-18T11:44:32.832Z,20.64
2022-10-18T11:47:52.225Z,20.63
2022-10-18T11:50:52.812Z,20.62
2022-10-18T11:54:01.720Z,20.59
2022-10-18T11:57:02.785Z,20.58
2022-10-18T12:00:42.138Z,20.59
2022-10-18T12:03:42.763Z,20.63
2022-10-18T12:06:32.522Z,20.73
2022-10-18T12:11:04.987Z,20.82
2022-10-18T12:13:47.327Z,20.85
2022-10-18T12:17:19.050Z,20.81
2022-10-18T12:19:56.023Z,20.75
2022-10-18T12:22:55.464Z,20.69
2022-10-18T12:25:46.509Z,20.62
2022-10-18T12:28:53.556Z,20.56
2022-10-18T12:32:25.746Z,20.44
2022-10-18T12:35:23.092Z,20.35
2022-10-18T12:38:23.235Z,20.40
2022-10-18T12:41:06.283Z,20.37
2022-10-18T12:44:08.964Z,20.40
2022-10-18T12:47:01.713Z,20.44
2022-10-18T12:49:49.052Z,20.39
2022-10-18T12:52:36.081Z,20.30
2022-10-18T12:55:55.500Z,20.23
2022-10-18T12:58:59.017Z,20.22
2022-10-18T13:02:25.133Z,20.20
2022-10-18T13:05:54.873Z,20.20
2022-10-18T13:08:56.426Z,20.19
2022-10-18T13:12:18.719Z,20.16
2022-10-18T13:15:41.478Z,20.13
2022-10-18T13:18:59.360Z,20.06
2022-10-18T13:22:04.269Z,19.99
2022-10-18T13:25:12.195Z,19.86
2022-10-18T13:28:10.027Z,19.72
2022-10-18T13:31:39.954Z,19.68
2022-10-18T13:34:41.333Z,19.60
2022-10-18T13:37:29.868Z,19.58
2022-10-18T13:47:56.126Z,19.35
2022-10-18T13:50:43.336Z,19.30
2022-10-18T13:53:51.983Z,19.19
2022-10-18T13:57:05.470Z,18.94
2022-10-18T14:00:21.596Z,18.72
2022-10-18T14:12:27.637Z,17.26
2022-10-18T14:15:24.139Z,16.99
2022-10-18T14:18:16.022Z,16.72
2022-10-18T14:21:58.148Z,16.46
2022-10-18T14:24:08.408Z,16.21
2022-10-18T14:29:34.237Z,15.83
2022-10-18T14:32:30.402Z,15.67
2022-10-18T14:35:32.972Z,15.61
2022-10-18T14:38:14.587Z,15.58
2022-10-18T14:41:27.641Z,15.59
2022-10-18T14:44:53.027Z,15.58
2022-10-18T14:47:30.516Z,15.55
2022-10-18T14:50:04.345Z,15.55
2022-10-18T14:52:35.850Z,15.55
2022-10-18T14:55:13.362Z,15.52
2022-10-18T14:57:46.371Z,15.48
2022-10-18T15:00:35.241Z,15.50
2022-10-18T15:03:09.616Z,15.46
2022-10-18T15:06:00.051Z,15.45
2022-10-18T15:08:44.494Z,15.41
2022-10-18T15:11:16.451Z,15.35
2022-10-18T15:13:58.674Z,15.32
2022-10-18T15:16:37.290Z,15.30
2022-10-18T15:19:36.428Z,15.30
2022-10-18T15:25:05.786Z,15.17
2022-10-18T15:30:34.206Z,15.07
2022-10-18T15:33:10.030Z,15.05
2022-10-18T15:35:43.327Z,15.08
2022-10-18T15:38:28.085Z,15.11
2022-10-18T15:41:04.335Z,15.11
2022-10-18T15:43:39.039Z,15.13
2022-10-18T15:46:32.441Z,15.14
2022-10-18T15:49:25.218Z,15.13
2022-10-18T15:52:10.994Z,15.13
2022-10-18T15:54:43.301Z,15.12
2022-10-18T15:57:13.045Z,15.12
2022-10-18T15:59:58.212Z,15.11
2022-10-18T16:02:31.319Z,15.11
2022-10-18T16:05:02.094Z,15.13
2022-10-18T16:07:31.395Z,15.15
2022-10-18T16:10:00.865Z,15.14
2022-10-18T16:12:31.682Z,15.14
2022-10-18T16:15:00.670Z,15.15
2022-10-18T16:17:30.105Z,15.15
2022-10-18T16:19:59.291Z,15.15
2022-10-18T16:22:29.540Z,15.14
2022-10-18T16:25:02.701Z,15.14
2022-10-18T16:27:31.981Z,15.09
2022-10-18T16:30:20.330Z,15.07
2022-10-18T16:33:00.283Z,15.02
2022-10-18T16:35:31.896Z,15.01
2022-10-18T16:38:00.753Z,14.99
2022-10-18T16:40:29.678Z,14.96
2022-10-18T16:42:58.555Z,14.96
2022-10-18T16:45:27.512Z,14.96
2022-10-18T16:47:56.440Z,14.94
2022-10-18T16:50:27.025Z,14.93
2022-10-18T16:52:55.948Z,14.92
2022-10-18T16:55:25.174Z,14.91
2022-10-18T16:57:56.831Z,14.90
2022-10-18T17:00:31.479Z,14.88
2022-10-18T17:03:07.262Z,14.86
2022-10-18T17:05:38.198Z,14.85
2022-10-18T17:08:19.790Z,14.85
2022-10-18T17:10:53.387Z,14.83
2022-10-18T17:13:26.038Z,14.81
2022-10-18T17:16:00.383Z,14.81
2022-10-18T17:18:42.894Z,14.79
2022-10-18T17:21:19.312Z,14.76
2022-10-18T17:23:54.136Z,14.74
2022-10-18T17:26:28.941Z,14.73
2022-10-18T17:29:08.437Z,14.71
2022-10-18T17:31:48.176Z,14.70
2022-10-18T17:34:21.465Z,14.69
2022-10-18T17:36:53.023Z,14.68
2022-10-18T17:39:42.034Z,14.64
2022-10-18T17:42:15.545Z,14.60
2022-10-18T17:44:47.053Z,14.59
2022-10-18T17:47:21.800Z,14.57
2022-10-18T17:49:53.687Z,14.57
2022-10-18T17:52:27.326Z,14.58
2022-10-18T17:54:57.928Z,14.57
2022-10-18T17:57:33.679Z,14.57
2022-10-18T18:00:10.756Z,14.57
2022-10-18T18:02:47.495Z,14.57
2022-10-18T18:05:23.166Z,14.57
2022-10-18T18:07:52.837Z,14.57
2022-10-18T18:10:33.060Z,14.57
2022-10-18T18:13:09.978Z,14.54
2022-10-18T18:15:41.735Z,14.52
2022-10-18T18:18:13.178Z,14.50
2022-10-18T18:20:55.361Z,14.49
2022-10-18T18:23:30.289Z,14.47
2022-10-18T18:26:01.652Z,14.46
2022-10-18T18:28:36.104Z,14.46
2022-10-18T18:31:16.028Z,14.46
2022-10-18T18:33:45.412Z,14.45
2022-10-18T18:36:16.680Z,14.46
2022-10-18T18:39:01.435Z,14.46
2022-10-18T18:41:34.710Z,14.47
2022-10-18T18:44:06.739Z,14.47
2022-10-18T18:46:39.374Z,14.48
2022-10-18T18:49:14.010Z,14.48
2022-10-18T18:51:47.195Z,14.49
2022-10-18T18:54:19.060Z,14.51
2022-10-18T18:56:48.308Z,14.52
2022-10-18T18:59:32.438Z,14.51
2022-10-18T19:02:12.281Z,14.50
2022-10-18T19:04:45.597Z,14.48
2022-10-18T19:07:22.702Z,14.49
2022-10-18T19:09:54.449Z,14.49
2022-10-18T19:13:28.439Z,14.48
2022-10-18T19:16:24.159Z,14.43
2022-10-18T19:19:16.739Z,14.41
2022-10-18T19:21:58.380Z,14.43
2022-10-18T19:24:32.766Z,14.41
2022-10-18T19:27:14.090Z,14.41
2022-10-18T19:29:46.296Z,14.40
2022-10-18T19:32:20.467Z,14.39
2022-10-18T19:34:52.205Z,14.38
2022-10-18T19:37:21.532Z,14.37
2022-10-18T19:39:51.961Z,14.37
2022-10-18T19:42:24.245Z,14.39
2022-10-18T19:45:09.365Z,14.38
2022-10-18T19:47:58.548Z,14.29
2022-10-18T19:50:51.103Z,14.25
2022-10-18T19:53:28.241Z,14.27
2022-10-18T19:56:16.956Z,14.27
2022-10-18T19:58:52.743Z,14.29
2022-10-18T20:01:28.180Z,14.30
2022-10-18T20:04:12.542Z,14.34
2022-10-18T20:06:57.111Z,14.33
2022-10-18T20:13:36.750Z,14.28
2022-10-18T20:16:31.033Z,14.30
2022-10-18T20:23:34.948Z,14.34
2022-10-18T20:26:39.480Z,14.35
2022-10-18T20:32:50.884Z,14.36
2022-10-18T20:35:50.087Z,14.38
2022-10-18T20:38:53.600Z,14.36
2022-10-18T20:42:00.332Z,14.36
2022-10-18T20:44:49.397Z,14.38
2022-10-18T20:48:44.217Z,14.38
2022-10-18T20:53:04.957Z,14.37
2022-10-18T20:57:16.829Z,14.34
2022-10-18T21:00:37.600Z,14.32
2022-10-18T21:30:26.506Z,15.40
2022-10-18T21:34:25.722Z,15.50
2022-10-18T22:37:17.803Z,13.04
2022-10-18T22:39:56.558Z,13.00
2022-10-18T22:42:37.325Z,12.97
2022-10-18T22:45:24.562Z,12.93
2022-10-18T22:48:24.051Z,12.89
2022-10-18T22:51:03.972Z,12.87
2022-10-18T22:53:40.593Z,12.86
2022-10-18T22:56:28.673Z,12.87
2022-10-18T22:59:02.463Z,12.85
2022-10-18T23:01:52.353Z,12.84
2022-10-18T23:04:39.250Z,12.83
2022-10-18T23:07:30.967Z,12.80
2022-10-18T23:10:16.446Z,12.79
2022-10-18T23:13:03.280Z,12.80
2022-10-18T23:22:11.401Z,12.76
2022-10-18T23:25:25.399Z,12.78
2022-10-18T23:28:08.997Z,12.80
2022-10-18T23:30:47.993Z,12.82
2022-10-18T23:33:34.053Z,12.84
2022-10-18T23:36:05.156Z,12.86
2022-10-18T23:38:42.477Z,12.87
2022-10-18T23:41:18.976Z,12.88
2022-10-18T23:43:57.594Z,12.87
2022-10-18T23:46:42.189Z,12.86
2022-10-18T23:49:14.626Z,12.84
2022-10-18T23:51:48.252Z,12.82
2022-10-18T23:54:19.893Z,12.78
2022-10-18T23:56:53.743Z,12.73
2022-10-18T23:59:35.926Z,12.69
